sensor_id;sensor_type;location;lat;lon;timestamp;P1;durP1;ratioP1;P2;durP2;ratioP2
52554;SDS011;38455;52.710;6.502;2023-02-15T00:01:41;46.42;;;25.25;;
52554;SDS011;38455;52.710;6.502;2023-02-15T00:04:07;50.95;;;29.50;;
52554;SDS011;38455;52.710;6.502;2023-02-15T00:06:34;67.85;;;35.40;;
52554;SDS011;38455;52.710;6.502;2023-02-15T00:09:01;65.38;;;33.85;;
52554;SDS011;38455;52.710;6.502;2023-02-15T00:11:27;42.78;;;23.88;;
52554;SDS011;38455;52.710;6.502;2023-02-15T00:16:32;43.45;;;23.50;;
52554;SDS011;38455;52.710;6.502;2023-02-15T00:18:58;38.47;;;20.23;;
52554;SDS011;38455;52.710;6.502;2023-02-15T00:21:26;35.03;;;19.52;;
52554;SDS011;38455;52.710;6.502;2023-02-15T00:23:54;32.97;;;20.10;;
52554;SDS011;38455;52.710;6.502;2023-02-15T00:26:21;30.33;;;18.98;;
52554;SDS011;38455;52.710;6.502;2023-02-15T00:28:47;31.67;;;19.63;;
52554;SDS011;38455;52.710;6.502;2023-02-15T00:31:13;34.63;;;21.23;;
52554;SDS011;38455;52.710;6.502;2023-02-15T00:33:39;30.77;;;19.70;;
52554;SDS011;38455;52.710;6.502;2023-02-15T00:36:06;33.33;;;20.85;;
52554;SDS011;38455;52.710;6.502;2023-02-15T00:38:33;30.95;;;20.10;;
52554;SDS011;38455;52.710;6.502;2023-02-15T00:41:00;30.90;;;19.15;;
52554;SDS011;38455;52.710;6.502;2023-02-15T00:43:28;37.50;;;20.35;;
52554;SDS011;38455;52.710;6.502;2023-02-15T00:45:55;39.13;;;21.23;;
52554;SDS011;38455;52.710;6.502;2023-02-15T00:48:21;30.73;;;19.08;;
52554;SDS011;38455;52.710;6.502;2023-02-15T00:50:48;37.92;;;21.73;;
52554;SDS011;38455;52.710;6.502;2023-02-15T00:53:15;52.55;;;28.58;;
52554;SDS011;38455;52.710;6.502;2023-02-15T00:55:41;49.55;;;26.60;;
52554;SDS011;38455;52.710;6.502;2023-02-15T00:58:08;43.92;;;24.65;;
52554;SDS011;38455;52.710;6.502;2023-02-15T01:00:34;46.20;;;24.88;;
52554;SDS011;38455;52.710;6.502;2023-02-15T01:03:00;33.75;;;19.10;;
52554;SDS011;38455;52.710;6.502;2023-02-15T01:05:26;34.25;;;21.48;;
52554;SDS011;38455;52.710;6.502;2023-02-15T01:07:52;27.95;;;18.25;;
52554;SDS011;38455;52.710;6.502;2023-02-15T01:10:18;28.15;;;17.13;;
52554;SDS011;38455;52.710;6.502;2023-02-15T01:12:43;28.08;;;16.95;;
52554;SDS011;38455;52.710;6.502;2023-02-15T01:15:09;26.25;;;16.40;;
52554;SDS011;38455;52.710;6.502;2023-02-15T01:17:35;30.13;;;18.38;;
52554;SDS011;38455;52.710;6.502;2023-02-15T01:20:00;59.97;;;23.10;;
52554;SDS011;38455;52.710;6.502;2023-02-15T01:22:26;105.15;;;25.25;;
52554;SDS011;38455;52.710;6.502;2023-02-15T01:24:52;270.00;;;40.38;;
52554;SDS011;38455;52.710;6.502;2023-02-15T01:27:17;227.48;;;46.92;;
52554;SDS011;38455;52.710;6.502;2023-02-15T01:29:43;158.10;;;34.30;;
52554;SDS011;38455;52.710;6.502;2023-02-15T01:32:09;251.00;;;38.00;;
52554;SDS011;38455;52.710;6.502;2023-02-15T01:34:34;536.53;;;63.45;;
52554;SDS011;38455;52.710;6.502;2023-02-15T01:37:00;391.75;;;58.35;;
52554;SDS011;38455;52.710;6.502;2023-02-15T01:39:26;128.82;;;41.90;;
52554;SDS011;38455;52.710;6.502;2023-02-15T01:41:51;194.52;;;47.35;;
52554;SDS011;38455;52.710;6.502;2023-02-15T01:47:09;131.63;;;34.13;;
52554;SDS011;38455;52.710;6.502;2023-02-15T01:49:37;216.52;;;40.05;;
52554;SDS011;38455;52.710;6.502;2023-02-15T01:52:06;162.27;;;34.17;;
52554;SDS011;38455;52.710;6.502;2023-02-15T01:54:33;103.43;;;31.13;;
52554;SDS011;38455;52.710;6.502;2023-02-15T01:57:03;139.95;;;33.17;;
52554;SDS011;38455;52.710;6.502;2023-02-15T01:59:31;200.40;;;35.08;;
52554;SDS011;38455;52.710;6.502;2023-02-15T02:02:01;531.85;;;53.50;;
52554;SDS011;38455;52.710;6.502;2023-02-15T02:04:33;449.33;;;48.35;;
52554;SDS011;38455;52.710;6.502;2023-02-15T02:09:31;563.53;;;58.40;;
52554;SDS011;38455;52.710;6.502;2023-02-15T02:11:57;490.17;;;57.50;;
52554;SDS011;38455;52.710;6.502;2023-02-15T02:14:23;550.65;;;63.08;;
52554;SDS011;38455;52.710;6.502;2023-02-15T02:16:55;486.83;;;62.17;;
52554;SDS011;38455;52.710;6.502;2023-02-15T02:45:20;483.00;;;53.22;;
52554;SDS011;38455;52.710;6.502;2023-02-15T02:48:03;282.70;;;43.80;;
52554;SDS011;38455;52.710;6.502;2023-02-15T02:50:32;376.70;;;52.88;;
52554;SDS011;38455;52.710;6.502;2023-02-15T02:52:58;424.23;;;55.95;;
52554;SDS011;38455;52.710;6.502;2023-02-15T02:55:31;306.13;;;51.38;;
52554;SDS011;38455;52.710;6.502;2023-02-15T03:00:40;422.40;;;59.60;;
52554;SDS011;38455;52.710;6.502;2023-02-15T03:03:24;297.52;;;52.03;;
52554;SDS011;38455;52.710;6.502;2023-02-15T03:05:53;268.52;;;48.10;;
52554;SDS011;38455;52.710;6.502;2023-02-15T03:08:22;604.53;;;78.05;;
52554;SDS011;38455;52.710;6.502;2023-02-15T03:10:53;655.20;;;76.40;;
52554;SDS011;38455;52.710;6.502;2023-02-15T03:13:21;519.75;;;63.22;;
52554;SDS011;38455;52.710;6.502;2023-02-15T03:15:47;446.75;;;60.00;;
52554;SDS011;38455;52.710;6.502;2023-02-15T03:18:39;491.30;;;64.63;;
52554;SDS011;38455;52.710;6.502;2023-02-15T03:21:09;350.40;;;53.95;;
52554;SDS011;38455;52.710;6.502;2023-02-15T03:23:48;307.10;;;50.60;;
52554;SDS011;38455;52.710;6.502;2023-02-15T03:26:24;407.48;;;58.53;;
52554;SDS011;38455;52.710;6.502;2023-02-15T03:28:52;524.58;;;65.50;;
52554;SDS011;38455;52.710;6.502;2023-02-15T03:31:21;542.33;;;72.30;;
52554;SDS011;38455;52.710;6.502;2023-02-15T03:34:02;494.55;;;64.70;;
52554;SDS011;38455;52.710;6.502;2023-02-15T03:39:23;232.32;;;47.40;;
52554;SDS011;38455;52.710;6.502;2023-02-15T03:44:50;376.92;;;56.72;;
52554;SDS011;38455;52.710;6.502;2023-02-15T03:47:25;227.25;;;49.90;;
52554;SDS011;38455;52.710;6.502;2023-02-15T03:52:28;132.20;;;40.28;;
52554;SDS011;38455;52.710;6.502;2023-02-15T03:54:55;156.20;;;43.67;;
52554;SDS011;38455;52.710;6.502;2023-02-15T03:57:26;133.40;;;40.55;;
52554;SDS011;38455;52.710;6.502;2023-02-15T04:05:35;144.75;;;41.13;;
52554;SDS011;38455;52.710;6.502;2023-02-15T04:08:01;175.93;;;43.53;;
52554;SDS011;38455;52.710;6.502;2023-02-15T04:10:27;104.35;;;38.20;;
52554;SDS011;38455;52.710;6.502;2023-02-15T04:13:11;92.85;;;38.83;;
52554;SDS011;38455;52.710;6.502;2023-02-15T04:15:37;77.40;;;35.65;;
52554;SDS011;38455;52.710;6.502;2023-02-15T04:18:21;91.20;;;34.65;;
52554;SDS011;38455;52.710;6.502;2023-02-15T04:21:07;96.70;;;34.83;;
52554;SDS011;38455;52.710;6.502;2023-02-15T04:23:51;141.57;;;35.67;;
52554;SDS011;38455;52.710;6.502;2023-02-15T04:26:35;300.15;;;47.47;;
52554;SDS011;38455;52.710;6.502;2023-02-15T04:29:01;222.50;;;38.70;;
52554;SDS011;38455;52.710;6.502;2023-02-15T04:31:27;194.23;;;39.95;;
52554;SDS011;38455;52.710;6.502;2023-02-15T04:33:52;209.30;;;39.83;;
52554;SDS011;38455;52.710;6.502;2023-02-15T04:36:18;310.65;;;45.95;;
52554;SDS011;38455;52.710;6.502;2023-02-15T04:38:43;159.38;;;37.00;;
52554;SDS011;38455;52.710;6.502;2023-02-15T04:41:09;189.57;;;38.80;;
52554;SDS011;38455;52.710;6.502;2023-02-15T04:43:37;142.38;;;35.47;;
52554;SDS011;38455;52.710;6.502;2023-02-15T04:46:02;175.75;;;35.60;;
52554;SDS011;38455;52.710;6.502;2023-02-15T04:48:28;118.05;;;35.20;;
52554;SDS011;38455;52.710;6.502;2023-02-15T04:50:54;121.50;;;33.30;;
52554;SDS011;38455;52.710;6.502;2023-02-15T04:53:20;121.47;;;35.40;;
52554;SDS011;38455;52.710;6.502;2023-02-15T04:55:46;119.60;;;37.53;;
52554;SDS011;38455;52.710;6.502;2023-02-15T04:58:11;95.30;;;31.92;;
52554;SDS011;38455;52.710;6.502;2023-02-15T05:00:37;69.03;;;31.13;;
52554;SDS011;38455;52.710;6.502;2023-02-15T05:03:02;101.07;;;34.55;;
52554;SDS011;38455;52.710;6.502;2023-02-15T05:05:28;293.27;;;49.03;;
52554;SDS011;38455;52.710;6.502;2023-02-15T05:07:54;200.50;;;42.40;;
52554;SDS011;38455;52.710;6.502;2023-02-15T05:10:19;239.25;;;45.45;;
52554;SDS011;38455;52.710;6.502;2023-02-15T05:12:46;179.30;;;41.25;;
52554;SDS011;38455;52.710;6.502;2023-02-15T05:15:11;177.80;;;41.53;;
52554;SDS011;38455;52.710;6.502;2023-02-15T05:17:37;186.93;;;41.90;;
52554;SDS011;38455;52.710;6.502;2023-02-15T05:20:03;164.18;;;40.90;;
52554;SDS011;38455;52.710;6.502;2023-02-15T05:22:29;235.32;;;45.60;;
52554;SDS011;38455;52.710;6.502;2023-02-15T05:24:55;289.60;;;52.72;;
52554;SDS011;38455;52.710;6.502;2023-02-15T05:27:39;225.73;;;45.63;;
52554;SDS011;38455;52.710;6.502;2023-02-15T05:30:23;318.77;;;55.08;;
52554;SDS011;38455;52.710;6.502;2023-02-15T05:32:49;163.82;;;43.65;;
52554;SDS011;38455;52.710;6.502;2023-02-15T05:35:15;228.90;;;50.42;;
52554;SDS011;38455;52.710;6.502;2023-02-15T05:37:41;178.85;;;45.15;;
52554;SDS011;38455;52.710;6.502;2023-02-15T05:40:07;121.20;;;42.40;;
52554;SDS011;38455;52.710;6.502;2023-02-15T05:42:33;175.68;;;41.08;;
52554;SDS011;38455;52.710;6.502;2023-02-15T05:44:59;187.13;;;44.42;;
52554;SDS011;38455;52.710;6.502;2023-02-15T05:47:25;231.55;;;46.95;;
52554;SDS011;38455;52.710;6.502;2023-02-15T05:49:50;206.20;;;44.15;;
52554;SDS011;38455;52.710;6.502;2023-02-15T05:52:16;260.65;;;47.97;;
52554;SDS011;38455;52.710;6.502;2023-02-15T05:54:42;279.05;;;51.50;;
52554;SDS011;38455;52.710;6.502;2023-02-15T05:57:07;321.38;;;54.10;;
52554;SDS011;38455;52.710;6.502;2023-02-15T05:59:33;332.70;;;60.67;;
52554;SDS011;38455;52.710;6.502;2023-02-15T06:01:58;226.02;;;50.22;;
52554;SDS011;38455;52.710;6.502;2023-02-15T06:04:27;169.93;;;44.80;;
52554;SDS011;38455;52.710;6.502;2023-02-15T06:06:53;152.55;;;45.97;;
52554;SDS011;38455;52.710;6.502;2023-02-15T06:09:18;269.38;;;55.13;;
52554;SDS011;38455;52.710;6.502;2023-02-15T06:11:44;202.23;;;48.50;;
52554;SDS011;38455;52.710;6.502;2023-02-15T06:14:10;233.15;;;50.80;;
52554;SDS011;38455;52.710;6.502;2023-02-15T06:16:36;182.38;;;48.60;;
52554;SDS011;38455;52.710;6.502;2023-02-15T06:19:02;209.18;;;53.42;;
52554;SDS011;38455;52.710;6.502;2023-02-15T06:21:29;143.20;;;48.45;;
52554;SDS011;38455;52.710;6.502;2023-02-15T06:23:55;136.73;;;50.28;;
52554;SDS011;38455;52.710;6.502;2023-02-15T06:26:21;105.93;;;47.50;;
52554;SDS011;38455;52.710;6.502;2023-02-15T06:28:47;111.30;;;47.60;;
52554;SDS011;38455;52.710;6.502;2023-02-15T06:31:13;91.18;;;43.78;;
52554;SDS011;38455;52.710;6.502;2023-02-15T06:33:38;116.90;;;49.03;;
52554;SDS011;38455;52.710;6.502;2023-02-15T06:36:04;91.10;;;43.17;;
52554;SDS011;38455;52.710;6.502;2023-02-15T06:38:30;86.05;;;41.45;;
52554;SDS011;38455;52.710;6.502;2023-02-15T06:40:56;83.60;;;39.90;;
52554;SDS011;38455;52.710;6.502;2023-02-15T06:43:22;84.85;;;43.35;;
52554;SDS011;38455;52.710;6.502;2023-02-15T06:45:47;95.80;;;42.75;;
52554;SDS011;38455;52.710;6.502;2023-02-15T06:48:13;84.28;;;38.03;;
52554;SDS011;38455;52.710;6.502;2023-02-15T06:50:39;89.15;;;41.88;;
52554;SDS011;38455;52.710;6.502;2023-02-15T06:53:04;88.65;;;42.33;;
52554;SDS011;38455;52.710;6.502;2023-02-15T06:55:30;93.80;;;42.20;;
52554;SDS011;38455;52.710;6.502;2023-02-15T06:57:55;81.28;;;39.67;;
52554;SDS011;38455;52.710;6.502;2023-02-15T07:00:21;86.60;;;39.25;;
52554;SDS011;38455;52.710;6.502;2023-02-15T07:02:48;81.40;;;38.90;;
52554;SDS011;38455;52.710;6.502;2023-02-15T07:05:22;78.22;;;38.35;;
52554;SDS011;38455;52.710;6.502;2023-02-15T07:07:49;96.45;;;42.80;;
52554;SDS011;38455;52.710;6.502;2023-02-15T07:10:14;87.22;;;40.05;;
52554;SDS011;38455;52.710;6.502;2023-02-15T07:12:40;99.00;;;41.40;;
52554;SDS011;38455;52.710;6.502;2023-02-15T07:15:06;94.97;;;42.25;;
52554;SDS011;38455;52.710;6.502;2023-02-15T07:17:34;88.70;;;40.13;;
52554;SDS011;38455;52.710;6.502;2023-02-15T07:20:00;90.93;;;41.97;;
52554;SDS011;38455;52.710;6.502;2023-02-15T07:22:27;86.75;;;41.75;;
52554;SDS011;38455;52.710;6.502;2023-02-15T07:24:53;83.40;;;38.38;;
52554;SDS011;38455;52.710;6.502;2023-02-15T07:27:20;90.35;;;42.67;;
52554;SDS011;38455;52.710;6.502;2023-02-15T07:29:46;93.65;;;41.85;;
52554;SDS011;38455;52.710;6.502;2023-02-15T07:32:12;83.30;;;41.28;;
52554;SDS011;38455;52.710;6.502;2023-02-15T07:34:37;88.55;;;39.58;;
52554;SDS011;38455;52.710;6.502;2023-02-15T07:37:03;83.10;;;39.50;;
52554;SDS011;38455;52.710;6.502;2023-02-15T07:39:29;83.15;;;38.55;;
52554;SDS011;38455;52.710;6.502;2023-02-15T07:41:55;78.90;;;36.42;;
52554;SDS011;38455;52.710;6.502;2023-02-15T07:44:20;76.80;;;35.67;;
52554;SDS011;38455;52.710;6.502;2023-02-15T07:46:46;70.93;;;34.20;;
52554;SDS011;38455;52.710;6.502;2023-02-15T07:49:12;70.30;;;33.95;;
52554;SDS011;38455;52.710;6.502;2023-02-15T07:51:37;71.05;;;35.50;;
52554;SDS011;38455;52.710;6.502;2023-02-15T07:54:03;67.75;;;34.42;;
52554;SDS011;38455;52.710;6.502;2023-02-15T07:56:29;59.90;;;32.38;;
52554;SDS011;38455;52.710;6.502;2023-02-15T07:58:54;63.92;;;32.75;;
52554;SDS011;38455;52.710;6.502;2023-02-15T08:03:48;57.30;;;29.85;;
52554;SDS011;38455;52.710;6.502;2023-02-15T08:06:14;61.80;;;31.33;;
52554;SDS011;38455;52.710;6.502;2023-02-15T08:08:40;49.92;;;27.98;;
52554;SDS011;38455;52.710;6.502;2023-02-15T08:16:33;45.97;;;25.15;;
52554;SDS011;38455;52.710;6.502;2023-02-15T08:19:02;41.95;;;24.33;;
52554;SDS011;38455;52.710;6.502;2023-02-15T08:21:30;43.90;;;25.00;;
52554;SDS011;38455;52.710;6.502;2023-02-15T08:23:57;42.38;;;25.48;;
52554;SDS011;38455;52.710;6.502;2023-02-15T08:26:23;37.88;;;22.55;;
52554;SDS011;38455;52.710;6.502;2023-02-15T08:28:50;38.60;;;22.63;;
52554;SDS011;38455;52.710;6.502;2023-02-15T08:31:16;38.70;;;22.88;;
52554;SDS011;38455;52.710;6.502;2023-02-15T08:33:43;42.28;;;22.80;;
52554;SDS011;38455;52.710;6.502;2023-02-15T08:36:13;37.00;;;22.85;;
52554;SDS011;38455;52.710;6.502;2023-02-15T08:38:40;34.63;;;21.95;;
52554;SDS011;38455;52.710;6.502;2023-02-15T08:41:10;40.70;;;22.08;;
52554;SDS011;38455;52.710;6.502;2023-02-15T08:43:58;36.78;;;22.20;;
52554;SDS011;38455;52.710;6.502;2023-02-15T08:46:25;36.25;;;21.63;;
52554;SDS011;38455;52.710;6.502;2023-02-15T08:48:52;37.33;;;22.20;;
52554;SDS011;38455;52.710;6.502;2023-02-15T08:51:19;40.80;;;22.17;;
52554;SDS011;38455;52.710;6.502;2023-02-15T08:53:48;39.45;;;23.08;;
52554;SDS011;38455;52.710;6.502;2023-02-15T08:56:16;36.72;;;21.55;;
52554;SDS011;38455;52.710;6.502;2023-02-15T08:58:43;36.42;;;22.08;;
52554;SDS011;38455;52.710;6.502;2023-02-15T09:01:10;34.95;;;20.92;;
52554;SDS011;38455;52.710;6.502;2023-02-15T09:03:37;35.20;;;22.58;;
52554;SDS011;38455;52.710;6.502;2023-02-15T09:06:04;34.35;;;22.38;;
52554;SDS011;38455;52.710;6.502;2023-02-15T09:08:30;37.90;;;22.63;;
52554;SDS011;38455;52.710;6.502;2023-02-15T09:11:09;33.10;;;22.67;;
52554;SDS011;38455;52.710;6.502;2023-02-15T09:13:37;34.58;;;22.48;;
52554;SDS011;38455;52.710;6.502;2023-02-15T09:16:05;33.40;;;21.90;;
52554;SDS011;38455;52.710;6.502;2023-02-15T09:18:33;35.72;;;22.02;;
52554;SDS011;38455;52.710;6.502;2023-02-15T09:21:05;42.28;;;23.00;;
52554;SDS011;38455;52.710;6.502;2023-02-15T09:23:36;36.78;;;22.90;;
52554;SDS011;38455;52.710;6.502;2023-02-15T09:26:02;37.58;;;23.73;;
52554;SDS011;38455;52.710;6.502;2023-02-15T09:28:32;36.35;;;23.70;;
52554;SDS011;38455;52.710;6.502;2023-02-15T09:31:32;36.40;;;22.63;;
52554;SDS011;38455;52.710;6.502;2023-02-15T09:33:52;34.05;;;22.60;;
52554;SDS011;38455;52.710;6.502;2023-02-15T09:36:19;34.97;;;23.05;;
52554;SDS011;38455;52.710;6.502;2023-02-15T09:38:47;34.75;;;23.20;;
52554;SDS011;38455;52.710;6.502;2023-02-15T09:46:22;37.63;;;24.23;;
52554;SDS011;38455;52.710;6.502;2023-02-15T09:49:05;34.25;;;22.30;;
52554;SDS011;38455;52.710;6.502;2023-02-15T09:55:12;34.35;;;22.50;;
52554;SDS011;38455;52.710;6.502;2023-02-15T10:00:16;37.10;;;23.73;;
52554;SDS011;38455;52.710;6.502;2023-02-15T10:03:59;35.47;;;23.88;;
52554;SDS011;38455;52.710;6.502;2023-02-15T10:11:17;34.50;;;22.85;;
52554;SDS011;38455;52.710;6.502;2023-02-15T10:14:18;39.00;;;24.25;;
52554;SDS011;38455;52.710;6.502;2023-02-15T10:22:33;38.95;;;24.33;;
52554;SDS011;38455;52.710;6.502;2023-02-15T10:28:09;37.95;;;23.88;;
52554;SDS011;38455;52.710;6.502;2023-02-15T10:30:49;38.10;;;24.25;;
52554;SDS011;38455;52.710;6.502;2023-02-15T10:41:44;37.15;;;23.98;;
52554;SDS011;38455;52.710;6.502;2023-02-15T10:58:12;37.42;;;25.92;;
52554;SDS011;38455;52.710;6.502;2023-02-15T11:01:01;35.90;;;24.35;;
52554;SDS011;38455;52.710;6.502;2023-02-15T11:06:20;37.35;;;23.63;;
52554;SDS011;38455;52.710;6.502;2023-02-15T11:08:52;37.22;;;23.55;;
52554;SDS011;38455;52.710;6.502;2023-02-15T11:11:22;36.50;;;24.15;;
52554;SDS011;38455;52.710;6.502;2023-02-15T11:13:53;36.60;;;23.55;;
52554;SDS011;38455;52.710;6.502;2023-02-15T11:16:28;37.67;;;24.48;;
52554;SDS011;38455;52.710;6.502;2023-02-15T11:18:58;37.25;;;24.17;;
52554;SDS011;38455;52.710;6.502;2023-02-15T11:21:32;37.88;;;24.55;;
52554;SDS011;38455;52.710;6.502;2023-02-15T11:24:09;34.75;;;23.85;;
52554;SDS011;38455;52.710;6.502;2023-02-15T11:26:43;38.00;;;24.73;;
52554;SDS011;38455;52.710;6.502;2023-02-15T11:31:46;35.38;;;24.77;;
52554;SDS011;38455;52.710;6.502;2023-02-15T11:37:15;38.65;;;23.55;;
52554;SDS011;38455;52.710;6.502;2023-02-15T11:39:45;38.22;;;24.90;;
52554;SDS011;38455;52.710;6.502;2023-02-15T11:42:17;36.65;;;24.33;;
52554;SDS011;38455;52.710;6.502;2023-02-15T11:47:38;32.78;;;22.63;;
52554;SDS011;38455;52.710;6.502;2023-02-15T11:50:03;36.85;;;24.40;;
52554;SDS011;38455;52.710;6.502;2023-02-15T11:52:29;35.20;;;24.48;;
52554;SDS011;38455;52.710;6.502;2023-02-15T11:54:55;36.58;;;24.25;;
52554;SDS011;38455;52.710;6.502;2023-02-15T11:59:58;36.92;;;24.50;;
52554;SDS011;38455;52.710;6.502;2023-02-15T12:04:58;33.80;;;23.23;;
52554;SDS011;38455;52.710;6.502;2023-02-15T12:07:36;35.05;;;22.77;;
52554;SDS011;38455;52.710;6.502;2023-02-15T12:10:20;37.15;;;24.95;;
52554;SDS011;38455;52.710;6.502;2023-02-15T12:13:07;35.90;;;23.67;;
52554;SDS011;38455;52.710;6.502;2023-02-15T12:15:33;39.47;;;23.95;;
52554;SDS011;38455;52.710;6.502;2023-02-15T12:18:00;36.97;;;23.52;;
52554;SDS011;38455;52.710;6.502;2023-02-15T12:20:32;36.05;;;23.52;;
52554;SDS011;38455;52.710;6.502;2023-02-15T12:23:00;35.25;;;23.42;;
52554;SDS011;38455;52.710;6.502;2023-02-15T12:25:37;34.53;;;23.17;;
52554;SDS011;38455;52.710;6.502;2023-02-15T12:30:45;35.42;;;22.67;;
52554;SDS011;38455;52.710;6.502;2023-02-15T12:36:11;32.83;;;22.38;;
52554;SDS011;38455;52.710;6.502;2023-02-15T12:38:42;37.53;;;23.55;;
52554;SDS011;38455;52.710;6.502;2023-02-15T12:41:25;36.22;;;23.13;;
52554;SDS011;38455;52.710;6.502;2023-02-15T12:44:09;35.95;;;23.90;;
52554;SDS011;38455;52.710;6.502;2023-02-15T12:46:40;36.25;;;22.40;;
52554;SDS011;38455;52.710;6.502;2023-02-15T12:51:45;33.67;;;22.23;;
52554;SDS011;38455;52.710;6.502;2023-02-15T12:56:50;36.63;;;23.20;;
52554;SDS011;38455;52.710;6.502;2023-02-15T12:59:15;38.00;;;23.63;;
52554;SDS011;38455;52.710;6.502;2023-02-15T13:01:45;37.05;;;23.80;;
52554;SDS011;38455;52.710;6.502;2023-02-15T13:06:54;38.88;;;24.65;;
52554;SDS011;38455;52.710;6.502;2023-02-15T13:11:56;39.45;;;22.05;;
52554;SDS011;38455;52.710;6.502;2023-02-15T13:14:28;34.50;;;22.50;;
52554;SDS011;38455;52.710;6.502;2023-02-15T13:16:58;36.65;;;22.40;;
52554;SDS011;38455;52.710;6.502;2023-02-15T13:19:29;34.05;;;22.48;;
52554;SDS011;38455;52.710;6.502;2023-02-15T13:22:10;38.08;;;22.35;;
52554;SDS011;38455;52.710;6.502;2023-02-15T13:24:41;40.88;;;22.70;;
52554;SDS011;38455;52.710;6.502;2023-02-15T13:27:12;38.30;;;22.58;;
52554;SDS011;38455;52.710;6.502;2023-02-15T13:29:45;33.97;;;20.52;;
52554;SDS011;38455;52.710;6.502;2023-02-15T13:34:49;33.67;;;19.75;;
52554;SDS011;38455;52.710;6.502;2023-02-15T13:37:20;35.00;;;21.75;;
52554;SDS011;38455;52.710;6.502;2023-02-15T13:40:08;37.03;;;21.30;;
52554;SDS011;38455;52.710;6.502;2023-02-15T13:46:21;38.90;;;21.85;;
52554;SDS011;38455;52.710;6.502;2023-02-15T13:51:19;33.60;;;20.92;;
52554;SDS011;38455;52.710;6.502;2023-02-15T13:56:51;35.53;;;20.33;;
52554;SDS011;38455;52.710;6.502;2023-02-15T14:02:31;36.85;;;21.30;;
52554;SDS011;38455;52.710;6.502;2023-02-15T14:05:10;34.95;;;20.73;;
52554;SDS011;38455;52.710;6.502;2023-02-15T14:31:43;35.15;;;20.48;;
52554;SDS011;38455;52.710;6.502;2023-02-15T14:34:29;36.10;;;20.92;;
52554;SDS011;38455;52.710;6.502;2023-02-15T14:37:02;33.40;;;19.30;;
52554;SDS011;38455;52.710;6.502;2023-02-15T14:39:36;37.28;;;21.33;;
52554;SDS011;38455;52.710;6.502;2023-02-15T14:42:37;33.90;;;19.83;;
52554;SDS011;38455;52.710;6.502;2023-02-15T14:50:36;34.67;;;19.50;;
52554;SDS011;38455;52.710;6.502;2023-02-15T14:53:32;34.55;;;20.27;;
52554;SDS011;38455;52.710;6.502;2023-02-15T14:58:38;36.38;;;20.42;;
52554;SDS011;38455;52.710;6.502;2023-02-15T15:01:17;36.97;;;20.55;;
52554;SDS011;38455;52.710;6.502;2023-02-15T15:04:02;32.63;;;18.63;;
52554;SDS011;38455;52.710;6.502;2023-02-15T15:06:56;34.90;;;20.55;;
52554;SDS011;38455;52.710;6.502;2023-02-15T15:09:25;34.33;;;19.67;;
52554;SDS011;38455;52.710;6.502;2023-02-15T15:11:53;37.38;;;18.85;;
52554;SDS011;38455;52.710;6.502;2023-02-15T15:17:02;37.95;;;19.48;;
52554;SDS011;38455;52.710;6.502;2023-02-15T15:22:28;38.20;;;21.20;;
52554;SDS011;38455;52.710;6.502;2023-02-15T15:24:58;34.97;;;21.48;;
52554;SDS011;38455;52.710;6.502;2023-02-15T15:41:18;35.50;;;21.25;;
52554;SDS011;38455;52.710;6.502;2023-02-15T15:49:10;37.35;;;20.83;;
52554;SDS011;38455;52.710;6.502;2023-02-15T15:51:40;40.22;;;22.45;;
52554;SDS011;38455;52.710;6.502;2023-02-15T15:54:15;38.97;;;21.42;;
52554;SDS011;38455;52.710;6.502;2023-02-15T15:56:48;35.80;;;20.33;;
52554;SDS011;38455;52.710;6.502;2023-02-15T15:59:22;34.97;;;21.15;;
52554;SDS011;38455;52.710;6.502;2023-02-15T16:01:51;38.67;;;21.85;;
52554;SDS011;38455;52.710;6.502;2023-02-15T16:04:25;41.45;;;22.38;;
52554;SDS011;38455;52.710;6.502;2023-02-15T16:06:54;40.13;;;21.63;;
52554;SDS011;38455;52.710;6.502;2023-02-15T16:09:22;41.63;;;24.02;;
52554;SDS011;38455;52.710;6.502;2023-02-15T16:11:58;37.50;;;22.25;;
52554;SDS011;38455;52.710;6.502;2023-02-15T16:14:29;38.70;;;23.15;;
52554;SDS011;38455;52.710;6.502;2023-02-15T16:17:04;41.28;;;23.15;;
52554;SDS011;38455;52.710;6.502;2023-02-15T16:19:33;35.30;;;21.90;;
52554;SDS011;38455;52.710;6.502;2023-02-15T16:22:03;40.85;;;22.17;;
52554;SDS011;38455;52.710;6.502;2023-02-15T16:24:42;40.45;;;22.08;;
52554;SDS011;38455;52.710;6.502;2023-02-15T16:27:17;40.67;;;23.38;;
52554;SDS011;38455;52.710;6.502;2023-02-15T16:29:53;41.53;;;21.90;;
52554;SDS011;38455;52.710;6.502;2023-02-15T16:32:23;43.15;;;23.38;;
52554;SDS011;38455;52.710;6.502;2023-02-15T16:34:51;44.67;;;23.92;;
52554;SDS011;38455;52.710;6.502;2023-02-15T16:37:28;41.65;;;23.95;;
52554;SDS011;38455;52.710;6.502;2023-02-15T16:39:59;42.75;;;23.23;;
52554;SDS011;38455;52.710;6.502;2023-02-15T16:42:25;39.65;;;22.52;;
52554;SDS011;38455;52.710;6.502;2023-02-15T16:44:53;44.22;;;23.73;;
52554;SDS011;38455;52.710;6.502;2023-02-15T16:47:30;40.15;;;22.70;;
52554;SDS011;38455;52.710;6.502;2023-02-15T16:49:59;40.53;;;21.77;;
52554;SDS011;38455;52.710;6.502;2023-02-15T16:52:27;46.05;;;24.45;;
52554;SDS011;38455;52.710;6.502;2023-02-15T16:54:55;40.33;;;23.05;;
52554;SDS011;38455;52.710;6.502;2023-02-15T16:57:27;40.30;;;23.02;;
52554;SDS011;38455;52.710;6.502;2023-02-15T17:00:06;41.80;;;22.10;;
52554;SDS011;38455;52.710;6.502;2023-02-15T17:02:42;44.50;;;23.85;;
52554;SDS011;38455;52.710;6.502;2023-02-15T17:05:19;47.25;;;25.02;;
52554;SDS011;38455;52.710;6.502;2023-02-15T17:10:31;45.00;;;23.42;;
52554;SDS011;38455;52.710;6.502;2023-02-15T17:13:01;45.30;;;24.58;;
52554;SDS011;38455;52.710;6.502;2023-02-15T17:15:35;39.50;;;22.83;;
52554;SDS011;38455;52.710;6.502;2023-02-15T17:18:06;45.08;;;23.25;;
52554;SDS011;38455;52.710;6.502;2023-02-15T17:20:45;46.65;;;24.08;;
52554;SDS011;38455;52.710;6.502;2023-02-15T17:25:50;45.58;;;24.42;;
52554;SDS011;38455;52.710;6.502;2023-02-15T17:28:27;41.83;;;23.73;;
52554;SDS011;38455;52.710;6.502;2023-02-15T17:30:56;44.30;;;23.60;;
52554;SDS011;38455;52.710;6.502;2023-02-15T17:33:56;42.40;;;24.63;;
52554;SDS011;38455;52.710;6.502;2023-02-15T17:36:19;40.47;;;22.10;;
52554;SDS011;38455;52.710;6.502;2023-02-15T17:41:22;42.15;;;22.83;;
52554;SDS011;38455;52.710;6.502;2023-02-15T17:43:59;49.08;;;23.90;;
52554;SDS011;38455;52.710;6.502;2023-02-15T17:46:25;39.85;;;22.25;;
52554;SDS011;38455;52.710;6.502;2023-02-15T17:48:54;48.28;;;24.27;;
52554;SDS011;38455;52.710;6.502;2023-02-15T17:51:21;46.33;;;26.10;;
52554;SDS011;38455;52.710;6.502;2023-02-15T17:53:47;48.20;;;24.98;;
52554;SDS011;38455;52.710;6.502;2023-02-15T17:56:32;43.95;;;24.08;;
52554;SDS011;38455;52.710;6.502;2023-02-15T17:58:59;51.88;;;25.35;;
52554;SDS011;38455;52.710;6.502;2023-02-15T18:01:25;47.85;;;25.15;;
52554;SDS011;38455;52.710;6.502;2023-02-15T18:04:10;46.20;;;25.63;;
52554;SDS011;38455;52.710;6.502;2023-02-15T18:09:40;47.38;;;26.17;;
52554;SDS011;38455;52.710;6.502;2023-02-15T18:12:28;49.22;;;26.25;;
52554;SDS011;38455;52.710;6.502;2023-02-15T18:14:55;41.10;;;24.30;;
52554;SDS011;38455;52.710;6.502;2023-02-15T18:17:29;46.85;;;26.13;;